sensor_id;sensor_type;location;lat;lon;timestamp;P1;durP1;ratioP1;P2;durP2;ratioP2
52740;SDS011;38634;52.138;9.912;2023-08-30T00:02:35;5.00;;;2.08;;
52740;SDS011;38634;52.138;9.912;2023-08-30T00:05:20;7.07;;;2.53;;
52740;SDS011;38634;52.138;9.912;2023-08-30T00:08:05;6.13;;;2.30;;
52740;SDS011;38634;52.138;9.912;2023-08-30T00:10:50;6.50;;;2.50;;
52740;SDS011;38634;52.138;9.912;2023-08-30T00:13:35;5.43;;;2.25;;
52740;SDS011;38634;52.138;9.912;2023-08-30T00:16:20;5.50;;;2.13;;
52740;SDS011;38634;52.138;9.912;2023-08-30T00:19:04;9.43;;;2.92;;
52740;SDS011;38634;52.138;9.912;2023-08-30T00:21:49;9.65;;;3.03;;
52740;SDS011;38634;52.138;9.912;2023-08-30T00:24:34;4.75;;;2.40;;
52740;SDS011;38634;52.138;9.912;2023-08-30T00:27:19;4.47;;;2.10;;
52740;SDS011;38634;52.138;9.912;2023-08-30T00:30:07;5.10;;;2.30;;
52740;SDS011;38634;52.138;9.912;2023-08-30T00:32:53;3.80;;;1.77;;
52740;SDS011;38634;52.138;9.912;2023-08-30T00:35:37;4.65;;;2.35;;
52740;SDS011;38634;52.138;9.912;2023-08-30T00:38:22;6.60;;;2.67;;
52740;SDS011;38634;52.138;9.912;2023-08-30T00:41:06;8.55;;;2.90;;
52740;SDS011;38634;52.138;9.912;2023-08-30T00:43:51;6.07;;;2.53;;
52740;SDS011;38634;52.138;9.912;2023-08-30T00:46:35;3.53;;;1.95;;
52740;SDS011;38634;52.138;9.912;2023-08-30T00:49:21;5.57;;;2.35;;
52740;SDS011;38634;52.138;9.912;2023-08-30T00:52:07;10.60;;;3.33;;
52740;SDS011;38634;52.138;9.912;2023-08-30T00:54:53;9.85;;;2.88;;
52740;SDS011;38634;52.138;9.912;2023-08-30T00:57:37;10.50;;;3.20;;
52740;SDS011;38634;52.138;9.912;2023-08-30T01:00:22;8.68;;;2.92;;
52740;SDS011;38634;52.138;9.912;2023-08-30T01:03:07;8.70;;;2.80;;
52740;SDS011;38634;52.138;9.912;2023-08-30T01:05:51;10.68;;;3.40;;
52740;SDS011;38634;52.138;9.912;2023-08-30T01:08:36;12.23;;;5.40;;
52740;SDS011;38634;52.138;9.912;2023-08-30T01:11:32;6.20;;;2.42;;
52740;SDS011;38634;52.138;9.912;2023-08-30T01:17:37;7.78;;;2.70;;
52740;SDS011;38634;52.138;9.912;2023-08-30T01:20:26;8.70;;;2.92;;
52740;SDS011;38634;52.138;9.912;2023-08-30T01:23:23;7.13;;;2.50;;
52740;SDS011;38634;52.138;9.912;2023-08-30T01:26:24;9.82;;;3.25;;
52740;SDS011;38634;52.138;9.912;2023-08-30T01:29:18;12.18;;;3.70;;
52740;SDS011;38634;52.138;9.912;2023-08-30T01:32:03;9.05;;;3.10;;
52740;SDS011;38634;52.138;9.912;2023-08-30T01:34:49;9.20;;;2.92;;
52740;SDS011;38634;52.138;9.912;2023-08-30T01:37:34;9.57;;;2.92;;
52740;SDS011;38634;52.138;9.912;2023-08-30T01:40:19;8.65;;;2.80;;
52740;SDS011;38634;52.138;9.912;2023-08-30T01:43:05;10.10;;;3.13;;
52740;SDS011;38634;52.138;9.912;2023-08-30T01:45:51;10.50;;;3.45;;
52740;SDS011;38634;52.138;9.912;2023-08-30T01:48:35;10.93;;;5.07;;
52740;SDS011;38634;52.138;9.912;2023-08-30T01:51:21;8.90;;;2.80;;
52740;SDS011;38634;52.138;9.912;2023-08-30T01:54:06;9.15;;;3.13;;
52740;SDS011;38634;52.138;9.912;2023-08-30T01:56:50;10.52;;;3.17;;
52740;SDS011;38634;52.138;9.912;2023-08-30T01:59:35;7.85;;;2.55;;
52740;SDS011;38634;52.138;9.912;2023-08-30T02:02:20;8.48;;;2.60;;
52740;SDS011;38634;52.138;9.912;2023-08-30T02:05:04;10.55;;;3.13;;
52740;SDS011;38634;52.138;9.912;2023-08-30T02:08:04;10.02;;;3.05;;
52740;SDS011;38634;52.138;9.912;2023-08-30T02:10:56;11.70;;;3.63;;
52740;SDS011;38634;52.138;9.912;2023-08-30T02:13:46;8.88;;;2.90;;
52740;SDS011;38634;52.138;9.912;2023-08-30T02:16:31;9.48;;;3.10;;
52740;SDS011;38634;52.138;9.912;2023-08-30T02:19:16;8.25;;;2.80;;
52740;SDS011;38634;52.138;9.912;2023-08-30T02:22:04;9.45;;;3.25;;
52740;SDS011;38634;52.138;9.912;2023-08-30T02:24:49;10.00;;;3.10;;
52740;SDS011;38634;52.138;9.912;2023-08-30T08:21:24;13.65;;;3.00;;
52740;SDS011;38634;52.138;9.912;2023-08-30T08:24:09;13.80;;;3.17;;
52740;SDS011;38634;52.138;9.912;2023-08-30T08:26:53;16.00;;;2.92;;
52740;SDS011;38634;52.138;9.912;2023-08-30T08:29:38;11.15;;;2.55;;
52740;SDS011;38634;52.138;9.912;2023-08-30T08:32:23;11.43;;;2.70;;
52740;SDS011;38634;52.138;9.912;2023-08-30T08:35:07;11.98;;;2.80;;
52740;SDS011;38634;52.138;9.912;2023-08-30T08:37:52;7.88;;;2.40;;
52740;SDS011;38634;52.138;9.912;2023-08-30T08:40:37;12.45;;;2.90;;
52740;SDS011;38634;52.138;9.912;2023-08-30T08:43:22;10.43;;;2.33;;
52740;SDS011;38634;52.138;9.912;2023-08-30T08:46:07;11.85;;;2.75;;
52740;SDS011;38634;52.138;9.912;2023-08-30T08:48:53;12.63;;;3.55;;
52740;SDS011;38634;52.138;9.912;2023-08-30T08:51:40;10.68;;;2.63;;
52740;SDS011;38634;52.138;9.912;2023-08-30T08:54:26;11.60;;;2.80;;
52740;SDS011;38634;52.138;9.912;2023-08-30T08:57:11;10.23;;;2.70;;
52740;SDS011;38634;52.138;9.912;2023-08-30T08:59:56;9.98;;;2.75;;
52740;SDS011;38634;52.138;9.912;2023-08-30T09:02:40;10.32;;;2.67;;
52740;SDS011;38634;52.138;9.912;2023-08-30T09:05:26;10.93;;;2.80;;
52740;SDS011;38634;52.138;9.912;2023-08-30T09:08:11;6.38;;;2.22;;
52740;SDS011;38634;52.138;9.912;2023-08-30T09:10:59;11.45;;;3.13;;
52740;SDS011;38634;52.138;9.912;2023-08-30T09:13:44;9.75;;;3.13;;
52740;SDS011;38634;52.138;9.912;2023-08-30T09:16:29;11.50;;;2.88;;
52740;SDS011;38634;52.138;9.912;2023-08-30T09:19:19;13.52;;;3.83;;
52740;SDS011;38634;52.138;9.912;2023-08-30T09:22:04;11.75;;;3.08;;
52740;SDS011;38634;52.138;9.912;2023-08-30T09:24:49;14.75;;;3.50;;
52740;SDS011;38634;52.138;9.912;2023-08-30T09:27:33;10.55;;;2.60;;
52740;SDS011;38634;52.138;9.912;2023-08-30T09:30:22;9.93;;;2.53;;
52740;SDS011;38634;52.138;9.912;2023-08-30T09:33:07;6.97;;;1.95;;
52740;SDS011;38634;52.138;9.912;2023-08-30T09:35:51;11.90;;;2.95;;
52740;SDS011;38634;52.138;9.912;2023-08-30T09:38:37;13.73;;;5.65;;
52740;SDS011;38634;52.138;9.912;2023-08-30T09:41:21;7.43;;;2.25;;
52740;SDS011;38634;52.138;9.912;2023-08-30T09:44:06;9.63;;;2.20;;
52740;SDS011;38634;52.138;9.912;2023-08-30T09:46:56;11.75;;;2.92;;
52740;SDS011;38634;52.138;9.912;2023-08-30T09:49:45;9.85;;;2.85;;
52740;SDS011;38634;52.138;9.912;2023-08-30T09:52:29;9.98;;;2.42;;
52740;SDS011;38634;52.138;9.912;2023-08-30T09:55:15;7.50;;;2.33;;
52740;SDS011;38634;52.138;9.912;2023-08-30T09:58:00;11.77;;;2.75;;
52740;SDS011;38634;52.138;9.912;2023-08-30T10:00:48;8.98;;;2.22;;
52740;SDS011;38634;52.138;9.912;2023-08-30T10:03:33;10.35;;;2.58;;
52740;SDS011;38634;52.138;9.912;2023-08-30T10:06:18;12.02;;;2.97;;
52740;SDS011;38634;52.138;9.912;2023-08-30T10:09:04;10.45;;;2.70;;
52740;SDS011;38634;52.138;9.912;2023-08-30T10:11:54;9.70;;;2.40;;
52740;SDS011;38634;52.138;9.912;2023-08-30T10:14:38;13.80;;;3.47;;
52740;SDS011;38634;52.138;9.912;2023-08-30T10:17:23;11.30;;;2.80;;
52740;SDS011;38634;52.138;9.912;2023-08-30T10:20:12;11.18;;;2.78;;
52740;SDS011;38634;52.138;9.912;2023-08-30T10:22:57;13.07;;;3.13;;
52740;SDS011;38634;52.138;9.912;2023-08-30T10:25:43;10.50;;;2.55;;
52740;SDS011;38634;52.138;9.912;2023-08-30T10:28:28;15.50;;;5.05;;
52740;SDS011;38634;52.138;9.912;2023-08-30T10:31:13;8.88;;;2.35;;
52740;SDS011;38634;52.138;9.912;2023-08-30T10:33:57;8.32;;;2.08;;
52740;SDS011;38634;52.138;9.912;2023-08-30T10:36:43;12.40;;;2.88;;
52740;SDS011;38634;52.138;9.912;2023-08-30T10:39:37;12.00;;;2.78;;
52740;SDS011;38634;52.138;9.912;2023-08-30T10:42:23;10.18;;;2.42;;
52740;SDS011;38634;52.138;9.912;2023-08-30T10:45:08;13.02;;;2.92;;
52740;SDS011;38634;52.138;9.912;2023-08-30T10:47:59;11.23;;;2.75;;
52740;SDS011;38634;52.138;9.912;2023-08-30T10:50:44;12.13;;;3.03;;
52740;SDS011;38634;52.138;9.912;2023-08-30T10:53:29;11.88;;;3.22;;
52740;SDS011;38634;52.138;9.912;2023-08-30T10:56:14;10.48;;;3.13;;
52740;SDS011;38634;52.138;9.912;2023-08-30T10:58:59;11.27;;;2.80;;
52740;SDS011;38634;52.138;9.912;2023-08-30T11:01:46;12.98;;;2.80;;
52740;SDS011;38634;52.138;9.912;2023-08-30T11:04:31;8.70;;;2.38;;
52740;SDS011;38634;52.138;9.912;2023-08-30T11:07:16;10.98;;;2.67;;
52740;SDS011;38634;52.138;9.912;2023-08-30T11:10:03;12.30;;;2.78;;
52740;SDS011;38634;52.138;9.912;2023-08-30T11:12:50;15.48;;;3.47;;
52740;SDS011;38634;52.138;9.912;2023-08-30T11:15:35;12.50;;;2.78;;
52740;SDS011;38634;52.138;9.912;2023-08-30T11:18:20;11.27;;;2.97;;
52740;SDS011;38634;52.138;9.912;2023-08-30T11:21:06;9.02;;;2.17;;
52740;SDS011;38634;52.138;9.912;2023-08-30T11:23:51;9.50;;;2.20;;
52740;SDS011;38634;52.138;9.912;2023-08-30T11:26:36;12.13;;;2.72;;
52740;SDS011;38634;52.138;9.912;2023-08-30T11:29:20;13.65;;;2.95;;
52740;SDS011;38634;52.138;9.912;2023-08-30T11:32:07;12.77;;;2.92;;
52740;SDS011;38634;52.138;9.912;2023-08-30T11:34:55;12.50;;;2.97;;
52740;SDS011;38634;52.138;9.912;2023-08-30T11:37:43;11.15;;;2.42;;
52740;SDS011;38634;52.138;9.912;2023-08-30T11:40:27;10.23;;;2.70;;
52740;SDS011;38634;52.138;9.912;2023-08-30T11:43:12;12.30;;;2.90;;
52740;SDS011;38634;52.138;9.912;2023-08-30T11:45:56;9.95;;;2.50;;
52740;SDS011;38634;52.138;9.912;2023-08-30T11:48:41;16.40;;;4.35;;
52740;SDS011;38634;52.138;9.912;2023-08-30T11:51:25;12.95;;;2.90;;
52740;SDS011;38634;52.138;9.912;2023-08-30T11:54:10;12.50;;;3.03;;
52740;SDS011;38634;52.138;9.912;2023-08-30T11:56:55;8.30;;;2.47;;
52740;SDS011;38634;52.138;9.912;2023-08-30T11:59:39;11.13;;;2.80;;
52740;SDS011;38634;52.138;9.912;2023-08-30T12:02:24;9.88;;;2.58;;
52740;SDS011;38634;52.138;9.912;2023-08-30T12:05:10;12.73;;;2.95;;
52740;SDS011;38634;52.138;9.912;2023-08-30T12:07:56;12.30;;;2.88;;
52740;SDS011;38634;52.138;9.912;2023-08-30T12:10:40;11.23;;;3.13;;
52740;SDS011;38634;52.138;9.912;2023-08-30T12:13:25;15.40;;;3.45;;
52740;SDS011;38634;52.138;9.912;2023-08-30T12:16:17;14.85;;;3.10;;
52740;SDS011;38634;52.138;9.912;2023-08-30T12:19:11;11.82;;;2.90;;
52740;SDS011;38634;52.138;9.912;2023-08-30T12:21:56;14.45;;;2.92;;
52740;SDS011;38634;52.138;9.912;2023-08-30T12:24:48;12.88;;;2.65;;
52740;SDS011;38634;52.138;9.912;2023-08-30T12:27:33;13.05;;;3.00;;
52740;SDS011;38634;52.138;9.912;2023-08-30T12:30:17;15.32;;;3.30;;
52740;SDS011;38634;52.138;9.912;2023-08-30T12:33:02;13.75;;;2.83;;
52740;SDS011;38634;52.138;9.912;2023-08-30T12:35:47;10.27;;;2.47;;
52740;SDS011;38634;52.138;9.912;2023-08-30T12:38:32;19.35;;;6.13;;
52740;SDS011;38634;52.138;9.912;2023-08-30T12:41:17;14.18;;;2.85;;
52740;SDS011;38634;52.138;9.912;2023-08-30T12:44:01;13.35;;;2.70;;
52740;SDS011;38634;52.138;9.912;2023-08-30T12:46:47;16.48;;;3.55;;
52740;SDS011;38634;52.138;9.912;2023-08-30T12:49:32;11.63;;;2.45;;
52740;SDS011;38634;52.138;9.912;2023-08-30T12:52:16;10.90;;;2.55;;
52740;SDS011;38634;52.138;9.912;2023-08-30T12:55:01;13.07;;;3.08;;
52740;SDS011;38634;52.138;9.912;2023-08-30T12:57:46;12.77;;;2.80;;
52740;SDS011;38634;52.138;9.912;2023-08-30T13:00:30;11.95;;;2.63;;
52740;SDS011;38634;52.138;9.912;2023-08-30T13:03:15;13.88;;;3.10;;
52740;SDS011;38634;52.138;9.912;2023-08-30T13:09:09;17.60;;;4.18;;
52740;SDS011;38634;52.138;9.912;2023-08-30T13:11:54;40.60;;;8.20;;
52740;SDS011;38634;52.138;9.912;2023-08-30T13:14:38;33.60;;;7.20;;
52740;SDS011;38634;52.138;9.912;2023-08-30T13:17:56;17.10;;;4.60;;
52740;SDS011;38634;52.138;9.912;2023-08-30T13:20:39;19.35;;;5.35;;
52740;SDS011;38634;52.138;9.912;2023-08-30T13:23:24;44.33;;;8.85;;
52740;SDS011;38634;52.138;9.912;2023-08-30T13:26:08;43.28;;;8.38;;
52740;SDS011;38634;52.138;9.912;2023-08-30T13:29:03;12.88;;;4.35;;
52740;SDS011;38634;52.138;9.912;2023-08-30T13:31:48;33.90;;;8.68;;
52740;SDS011;38634;52.138;9.912;2023-08-30T13:34:32;32.75;;;8.25;;
52740;SDS011;38634;52.138;9.912;2023-08-30T13:37:17;14.43;;;4.15;;
52740;SDS011;38634;52.138;9.912;2023-08-30T13:40:02;12.20;;;3.65;;
52740;SDS011;38634;52.138;9.912;2023-08-30T13:42:50;23.90;;;6.75;;
52740;SDS011;38634;52.138;9.912;2023-08-30T13:45:34;32.72;;;7.43;;
52740;SDS011;38634;52.138;9.912;2023-08-30T13:48:19;14.93;;;4.93;;
52740;SDS011;38634;52.138;9.912;2023-08-30T13:51:03;8.57;;;3.47;;
52740;SDS011;38634;52.138;9.912;2023-08-30T13:53:49;36.80;;;7.97;;
52740;SDS011;38634;52.138;9.912;2023-08-30T13:56:35;39.72;;;7.88;;
52740;SDS011;38634;52.138;9.912;2023-08-30T13:59:22;12.60;;;3.70;;
52740;SDS011;38634;52.138;9.912;2023-08-30T14:02:19;37.10;;;7.97;;
52740;SDS011;38634;52.138;9.912;2023-08-30T14:05:04;20.67;;;4.90;;
52740;SDS011;38634;52.138;9.912;2023-08-30T14:07:49;17.08;;;5.03;;
52740;SDS011;38634;52.138;9.912;2023-08-30T14:10:34;27.85;;;7.13;;
52740;SDS011;38634;52.138;9.912;2023-08-30T14:13:19;38.90;;;8.25;;
52740;SDS011;38634;52.138;9.912;2023-08-30T14:16:04;20.33;;;5.57;;
52740;SDS011;38634;52.138;9.912;2023-08-30T14:18:49;16.88;;;4.88;;
52740;SDS011;38634;52.138;9.912;2023-08-30T14:21:36;20.02;;;4.68;;
52740;SDS011;38634;52.138;9.912;2023-08-30T14:24:21;36.80;;;8.25;;
52740;SDS011;38634;52.138;9.912;2023-08-30T14:27:08;12.85;;;3.75;;
52740;SDS011;38634;52.138;9.912;2023-08-30T14:29:53;11.80;;;4.13;;
52740;SDS011;38634;52.138;9.912;2023-08-30T14:32:38;29.98;;;6.75;;
52740;SDS011;38634;52.138;9.912;2023-08-30T14:35:26;25.70;;;5.53;;
52740;SDS011;38634;52.138;9.912;2023-08-30T14:38:11;15.48;;;4.22;;
52740;SDS011;38634;52.138;9.912;2023-08-30T14:40:56;25.77;;;6.00;;
52740;SDS011;38634;52.138;9.912;2023-08-30T14:43:51;28.63;;;6.65;;
52740;SDS011;38634;52.138;9.912;2023-08-30T14:49:46;15.07;;;4.18;;
52740;SDS011;38634;52.138;9.912;2023-08-30T14:52:33;31.85;;;7.22;;
52740;SDS011;38634;52.138;9.912;2023-08-30T14:55:18;39.45;;;8.30;;
52740;SDS011;38634;52.138;9.912;2023-08-30T14:58:02;12.23;;;3.78;;
52740;SDS011;38634;52.138;9.912;2023-08-30T15:00:48;13.45;;;3.65;;
52740;SDS011;38634;52.138;9.912;2023-08-30T15:03:32;35.63;;;7.97;;
52740;SDS011;38634;52.138;9.912;2023-08-30T15:06:17;33.78;;;8.35;;
52740;SDS011;38634;52.138;9.912;2023-08-30T15:09:02;14.63;;;4.60;;
52740;SDS011;38634;52.138;9.912;2023-08-30T15:11:46;11.68;;;3.25;;
52740;SDS011;38634;52.138;9.912;2023-08-30T15:14:31;31.25;;;7.38;;
52740;SDS011;38634;52.138;9.912;2023-08-30T15:17:23;31.70;;;7.43;;
52740;SDS011;38634;52.138;9.912;2023-08-30T15:20:08;17.20;;;4.25;;
52740;SDS011;38634;52.138;9.912;2023-08-30T15:22:53;26.63;;;5.88;;
52740;SDS011;38634;52.138;9.912;2023-08-30T15:25:39;35.03;;;7.95;;
52740;SDS011;38634;52.138;9.912;2023-08-30T15:28:23;23.20;;;6.47;;
52740;SDS011;38634;52.138;9.912;2023-08-30T15:31:09;16.65;;;4.10;;
52740;SDS011;38634;52.138;9.912;2023-08-30T15:33:55;30.98;;;7.20;;
52740;SDS011;38634;52.138;9.912;2023-08-30T15:36:40;31.33;;;7.00;;
52740;SDS011;38634;52.138;9.912;2023-08-30T15:39:24;21.25;;;5.60;;
52740;SDS011;38634;52.138;9.912;2023-08-30T15:42:09;14.77;;;3.55;;
52740;SDS011;38634;52.138;9.912;2023-08-30T15:44:54;27.83;;;6.20;;
52740;SDS011;38634;52.138;9.912;2023-08-30T15:47:39;31.17;;;7.00;;
52740;SDS011;38634;52.138;9.912;2023-08-30T15:50:23;22.27;;;5.70;;
52740;SDS011;38634;52.138;9.912;2023-08-30T15:53:08;12.60;;;3.15;;
52740;SDS011;38634;52.138;9.912;2023-08-30T15:55:53;19.63;;;5.30;;
52740;SDS011;38634;52.138;9.912;2023-08-30T15:58:38;30.73;;;8.20;;
52740;SDS011;38634;52.138;9.912;2023-08-30T16:01:23;26.95;;;6.90;;
52740;SDS011;38634;52.138;9.912;2023-08-30T16:04:08;16.08;;;5.00;;
52740;SDS011;38634;52.138;9.912;2023-08-30T16:06:52;14.00;;;4.50;;
52740;SDS011;38634;52.138;9.912;2023-08-30T16:09:37;32.72;;;7.85;;
52740;SDS011;38634;52.138;9.912;2023-08-30T16:12:21;26.85;;;6.28;;
52740;SDS011;38634;52.138;9.912;2023-08-30T16:15:06;14.93;;;4.40;;
52740;SDS011;38634;52.138;9.912;2023-08-30T16:17:55;16.30;;;4.57;;
52740;SDS011;38634;52.138;9.912;2023-08-30T16:20:51;14.15;;;4.18;;
52740;SDS011;38634;52.138;9.912;2023-08-30T16:23:35;15.57;;;5.00;;
52740;SDS011;38634;52.138;9.912;2023-08-30T16:26:20;25.80;;;6.00;;
52740;SDS011;38634;52.138;9.912;2023-08-30T16:29:05;32.90;;;8.50;;
52740;SDS011;38634;52.138;9.912;2023-08-30T16:31:51;13.63;;;4.50;;
52740;SDS011;38634;52.138;9.912;2023-08-30T16:34:36;16.25;;;4.65;;
52740;SDS011;38634;52.138;9.912;2023-08-30T16:37:22;31.88;;;7.65;;
52740;SDS011;38634;52.138;9.912;2023-08-30T16:40:07;37.97;;;9.43;;
52740;SDS011;38634;52.138;9.912;2023-08-30T16:42:52;21.63;;;5.47;;
52740;SDS011;38634;52.138;9.912;2023-08-30T16:45:37;13.70;;;4.13;;
52740;SDS011;38634;52.138;9.912;2023-08-30T16:48:21;26.73;;;7.60;;
52740;SDS011;38634;52.138;9.912;2023-08-30T16:51:06;40.60;;;9.18;;
52740;SDS011;38634;52.138;9.912;2023-08-30T16:53:51;25.02;;;6.45;;
52740;SDS011;38634;52.138;9.912;2023-08-30T16:56:36;15.57;;;4.80;;
52740;SDS011;38634;52.138;9.912;2023-08-30T16:59:21;27.00;;;7.18;;
52740;SDS011;38634;52.138;9.912;2023-08-30T17:02:05;28.00;;;7.38;;
52740;SDS011;38634;52.138;9.912;2023-08-30T17:04:50;31.15;;;7.63;;
52740;SDS011;38634;52.138;9.912;2023-08-30T17:07:34;16.27;;;5.05;;
52740;SDS011;38634;52.138;9.912;2023-08-30T17:10:19;18.55;;;5.80;;
52740;SDS011;38634;52.138;9.912;2023-08-30T17:13:06;37.28;;;8.15;;
52740;SDS011;38634;52.138;9.912;2023-08-30T17:15:51;32.75;;;7.88;;
52740;SDS011;38634;52.138;9.912;2023-08-30T17:18:41;22.25;;;7.00;;
52740;SDS011;38634;52.138;9.912;2023-08-30T17:21:25;17.13;;;4.43;;
52740;SDS011;38634;52.138;9.912;2023-08-30T17:24:10;7.68;;;2.40;;
52740;SDS011;38634;52.138;9.912;2023-08-30T17:26:55;9.05;;;3.58;;
52740;SDS011;38634;52.138;9.912;2023-08-30T17:29:40;5.45;;;2.58;;
52740;SDS011;38634;52.138;9.912;2023-08-30T17:32:25;5.13;;;2.72;;
52740;SDS011;38634;52.138;9.912;2023-08-30T17:35:09;4.05;;;2.35;;
52740;SDS011;38634;52.138;9.912;2023-08-30T17:37:54;4.75;;;2.72;;
52740;SDS011;38634;52.138;9.912;2023-08-30T17:40:39;8.60;;;2.80;;
52740;SDS011;38634;52.138;9.912;2023-08-30T17:43:23;8.65;;;2.05;;
52740;SDS011;38634;52.138;9.912;2023-08-30T17:46:09;8.45;;;2.97;;
52740;SDS011;38634;52.138;9.912;2023-08-30T17:48:54;5.57;;;2.42;;
52740;SDS011;38634;52.138;9.912;2023-08-30T17:51:38;3.88;;;2.10;;
52740;SDS011;38634;52.138;9.912;2023-08-30T17:54:23;6.55;;;2.47;;
52740;SDS011;38634;52.138;9.912;2023-08-30T17:57:08;4.18;;;1.90;;
52740;SDS011;38634;52.138;9.912;2023-08-30T17:59:53;3.40;;;2.00;;
52740;SDS011;38634;52.138;9.912;2023-08-30T18:02:38;2.70;;;1.80;;
52740;SDS011;38634;52.138;9.912;2023-08-30T18:05:22;3.25;;;2.22;;
52740;SDS011;38634;52.138;9.912;2023-08-30T18:08:07;4.55;;;2.30;;
52740;SDS011;38634;52.138;9.912;2023-08-30T18:10:52;3.55;;;1.90;;
52740;SDS011;38634;52.138;9.912;2023-08-30T18:13:38;3.00;;;1.80;;
52740;SDS011;38634;52.138;9.912;2023-08-30T18:16:24;3.13;;;2.03;;
52740;SDS011;38634;52.138;9.912;2023-08-30T18:19:08;3.45;;;2.15;;
52740;SDS011;38634;52.138;9.912;2023-08-30T18:21:53;4.22;;;2.50;;
52740;SDS011;38634;52.138;9.912;2023-08-30T18:24:38;4.03;;;2.53;;
52740;SDS011;38634;52.138;9.912;2023-08-30T18:27:22;4.30;;;2.45;;
52740;SDS011;38634;52.138;9.912;2023-08-30T18:30:07;4.43;;;2.17;;
52740;SDS011;38634;52.138;9.912;2023-08-30T18:32:52;5.47;;;2.15;;
52740;SDS011;38634;52.138;9.912;2023-08-30T18:35:37;3.20;;;1.95;;
52740;SDS011;38634;52.138;9.912;2023-08-30T18:38:23;2.10;;;1.90;;
52740;SDS011;38634;52.138;9.912;2023-08-30T18:41:07;2.67;;;1.83;;
52740;SDS011;38634;52.138;9.912;2023-08-30T18:43:52;2.30;;;1.95;;
52740;SDS011;38634;52.138;9.912;2023-08-30T18:46:36;2.22;;;1.50;;
52740;SDS011;38634;52.138;9.912;2023-08-30T18:49:21;2.88;;;1.90;;
52740;SDS011;38634;52.138;9.912;2023-08-30T18:52:06;2.45;;;1.70;;
52740;SDS011;38634;52.138;9.912;2023-08-30T18:54:51;3.70;;;2.28;;
52740;SDS011;38634;52.138;9.912;2023-08-30T18:57:36;3.65;;;2.10;;
52740;SDS011;38634;52.138;9.912;2023-08-30T19:00:20;3.83;;;2.25;;
52740;SDS011;38634;52.138;9.912;2023-08-30T19:03:05;3.75;;;1.98;;
52740;SDS011;38634;52.138;9.912;2023-08-30T19:05:49;4.25;;;2.42;;
52740;SDS011;38634;52.138;9.912;2023-08-30T19:08:34;5.18;;;2.67;;
52740;SDS011;38634;52.138;9.912;2023-08-30T19:11:19;4.43;;;2.22;;
52740;SDS011;38634;52.138;9.912;2023-08-30T19:14:03;5.57;;;2.45;;
52740;SDS011;38634;52.138;9.912;2023-08-30T19:16:48;2.88;;;1.70;;
52740;SDS011;38634;52.138;9.912;2023-08-30T19:19:33;4.55;;;2.22;;
52740;SDS011;38634;52.138;9.912;2023-08-30T19:22:17;3.28;;;2.20;;
52740;SDS011;38634;52.138;9.912;2023-08-30T19:25:04;7.07;;;2.55;;
52740;SDS011;38634;52.138;9.912;2023-08-30T19:27:52;3.00;;;2.00;;
52740;SDS011;38634;52.138;9.912;2023-08-30T19:30:37;3.17;;;2.20;;
52740;SDS011;38634;52.138;9.912;2023-08-30T19:33:21;4.53;;;2.55;;
52740;SDS011;38634;52.138;9.912;2023-08-30T19:36:06;5.78;;;2.47;;
52740;SDS011;38634;52.138;9.912;2023-08-30T19:38:51;2.38;;;1.95;;
52740;SDS011;38634;52.138;9.912;2023-08-30T19:41:37;3.60;;;2.28;;
52740;SDS011;38634;52.138;9.912;2023-08-30T19:44:22;3.40;;;2.15;;
52740;SDS011;38634;52.138;9.912;2023-08-30T19:47:06;2.80;;;1.88;;
52740;SDS011;38634;52.138;9.912;2023-08-30T19:49:51;3.15;;;2.10;;
52740;SDS011;38634;52.138;9.912;2023-08-30T19:52:36;2.83;;;2.08;;
52740;SDS011;38634;52.138;9.912;2023-08-30T19:55:21;2.88;;;2.10;;
52740;SDS011;38634;52.138;9.912;2023-08-30T19:58:05;3.72;;;2.17;;
52740;SDS011;38634;52.138;9.912;2023-08-30T20:00:50;3.60;;;1.95;;
52740;SDS011;38634;52.138;9.912;2023-08-30T20:03:35;4.85;;;2.22;;
52740;SDS011;38634;52.138;9.912;2023-08-30T20:06:20;3.28;;;2.33;;
52740;SDS011;38634;52.138;9.912;2023-08-30T20:09:05;2.90;;;1.83;;
52740;SDS011;38634;52.138;9.912;2023-08-30T20:11:49;4.63;;;2.35;;
52740;SDS011;38634;52.138;9.912;2023-08-30T20:14:34;5.97;;;2.38;;
52740;SDS011;38634;52.138;9.912;2023-08-30T20:17:18;8.38;;;2.60;;
52740;SDS011;38634;52.138;9.912;2023-08-30T20:20:03;3.50;;;2.13;;
52740;SDS011;38634;52.138;9.912;2023-08-30T20:22:48;3.95;;;2.40;;
52740;SDS011;38634;52.138;9.912;2023-08-30T20:25:33;2.45;;;1.95;;
52740;SDS011;38634;52.138;9.912;2023-08-30T20:28:21;3.15;;;2.63;;
52740;SDS011;38634;52.138;9.912;2023-08-30T20:31:06;2.65;;;1.98;;
52740;SDS011;38634;52.138;9.912;2023-08-30T20:33:53;3.05;;;2.45;;
52740;SDS011;38634;52.138;9.912;2023-08-30T20:36:37;4.15;;;2.55;;
52740;SDS011;38634;52.138;9.912;2023-08-30T20:39:22;3.10;;;2.03;;
52740;SDS011;38634;52.138;9.912;2023-08-30T20:42:06;2.65;;;1.92;;
52740;SDS011;38634;52.138;9.912;2023-08-30T20:44:51;2.60;;;1.90;;
52740;SDS011;38634;52.138;9.912;2023-08-30T20:47:36;4.15;;;2.50;;
52740;SDS011;38634;52.138;9.912;2023-08-30T20:50:22;4.15;;;2.10;;
52740;SDS011;38634;52.138;9.912;2023-08-30T20:53:07;2.63;;;2.03;;
52740;SDS011;38634;52.138;9.912;2023-08-30T20:55:52;3.40;;;2.10;;
52740;SDS011;38634;52.138;9.912;2023-08-30T20:58:37;4.45;;;3.35;;
52740;SDS011;38634;52.138;9.912;2023-08-30T21:01:25;3.38;;;2.17;;
52740;SDS011;38634;52.138;9.912;2023-08-30T21:04:13;3.30;;;1.85;;
52740;SDS011;38634;52.138;9.912;2023-08-30T21:06:58;3.70;;;2.17;;
52740;SDS011;38634;52.138;9.912;2023-08-30T21:09:42;4.30;;;1.98;;
52740;SDS011;38634;52.138;9.912;2023-08-30T21:12:27;4.78;;;2.20;;
52740;SDS011;38634;52.138;9.912;2023-08-30T21:15:11;3.13;;;1.92;;
52740;SDS011;38634;52.138;9.912;2023-08-30T21:17:56;2.55;;;1.83;;
52740;SDS011;38634;52.138;9.912;2023-08-30T21:20:40;2.17;;;1.83;;
52740;SDS011;38634;52.138;9.912;2023-08-30T21:23:25;4.35;;;2.38;;
52740;SDS011;38634;52.138;9.912;2023-08-30T21:26:10;4.25;;;2.42;;
52740;SDS011;38634;52.138;9.912;2023-08-30T21:28:55;4.03;;;2.47;;
52740;SDS011;38634;52.138;9.912;2023-08-30T21:31:39;2.85;;;1.85;;
52740;SDS011;38634;52.138;9.912;2023-08-30T21:34:24;14.55;;;10.00;;
52740;SDS011;38634;52.138;9.912;2023-08-30T21:37:09;6.57;;;5.72;;
52740;SDS011;38634;52.138;9.912;2023-08-30T21:39:53;7.68;;;4.75;;
52740;SDS011;38634;52.138;9.912;2023-08-30T21:42:38;7.90;;;4.45;;
52740;SDS011;38634;52.138;9.912;2023-08-30T21:45:23;4.75;;;3.35;;
52740;SDS011;38634;52.138;9.912;2023-08-30T21:48:07;5.15;;;3.22;;
52740;SDS011;38634;52.138;9.912;2023-08-30T21:50:53;2.95;;;2.63;;
52740;SDS011;38634;52.138;9.912;2023-08-30T21:53:38;2.95;;;2.28;;
52740;SDS011;38634;52.138;9.912;2023-08-30T21:56:23;2.47;;;1.98;;
52740;SDS011;38634;52.138;9.912;2023-08-30T21:59:07;2.75;;;2.13;;
52740;SDS011;38634;52.138;9.912;2023-08-30T22:01:52;4.20;;;2.55;;
52740;SDS011;38634;52.138;9.912;2023-08-30T22:04:37;3.97;;;2.85;;
52740;SDS011;38634;52.138;9.912;2023-08-30T22:07:24;2.55;;;2.08;;
52740;SDS011;38634;52.138;9.912;2023-08-30T22:10:09;3.42;;;2.50;;
52740;SDS011;38634;52.138;9.912;2023-08-30T22:12:58;4.25;;;2.30;;
52740;SDS011;38634;52.138;9.912;2023-08-30T22:15:43;5.88;;;2.42;;
52740;SDS011;38634;52.138;9.912;2023-08-30T22:18:27;10.95;;;3.50;;
52740;SDS011;38634;52.138;9.912;2023-08-30T22:21:12;2.60;;;1.98;;
52740;SDS011;38634;52.138;9.912;2023-08-30T22:23:59;4.15;;;3.10;;
52740;SDS011;38634;52.138;9.912;2023-08-30T22:26:45;5.80;;;2.90;;
52740;SDS011;38634;52.138;9.912;2023-08-30T22:29:30;9.75;;;3.03;;
52740;SDS011;38634;52.138;9.912;2023-08-30T22:32:14;7.78;;;2.38;;
52740;SDS011;38634;52.138;9.912;2023-08-30T22:34:59;12.57;;;3.05;;